»·PEaware :: N4ZF KSJC-KBOI

N4ZF :: KSJC-KBOI

FLIGHT INFORMATION

Flight Status: Arrived
Operator: Privately registered:
United States
More flights under this callsign
Pilot: Chris H. (14545)
Aircraft: BOMBARDIER BD-100 CHALLENGER 300
(CL30)
More flights by this aircraft type
Origin: KSJC Mineta San Jose Intl
United States
Destination: KBOI Boise Air Terminal/Gowen
United States
More flights between these airports :: More routes between these airports
Route: +SJC360020 FMG SADYL3
File this flight plan on PilotEdge
Remarks:
Altitude:
(Current/Filed)
41,000ft
Speed:
(Current/Filed)
400kts
Departed: 12-Jan-18 01:05 PM
Arrived: 12-Jan-18 02:25 PM
Distance/Time
Traveled:
454nm/1:20
Distance/Time
To Go:
Arrived

Flight Plot

Page will automatically refresh every two minutes.

Flight plan parsing failed; only flown route is shown


Map Options




Map Legend


Flown Route
Filed Route
Departure Airport
Arrival Airport
Navaid (VOR, NDB)
Fix

Horizontal Profiles

Position Reports

Time Latitude Longitude Heading Altitude Ground
Speed
12-Jan-18 12:48 37.355480 -121.927643 228 59ft 0kts
12-Jan-18 12:49 37.355480 -121.927643 228 59ft 0kts
12-Jan-18 12:50 37.355480 -121.927643 228 59ft 0kts
12-Jan-18 12:51 37.355480 -121.927643 228 59ft 0kts
12-Jan-18 12:52 37.355480 -121.927643 228 59ft 0kts
12-Jan-18 12:53 37.355480 -121.927643 228 59ft 0kts
12-Jan-18 12:54 37.355480 -121.927643 228 59ft 0kts
12-Jan-18 12:55 37.355480 -121.927643 228 59ft 0kts
12-Jan-18 12:56 37.355480 -121.927643 228 59ft 0kts
12-Jan-18 12:57 37.355480 -121.927643 228 59ft 0kts
12-Jan-18 12:58 37.355480 -121.927643 228 59ft 0kts
12-Jan-18 12:59 37.355454 -121.927412 52 59ft 1kts
12-Jan-18 13:00 37.355486 -121.927360 52 59ft 0kts
12-Jan-18 13:01 37.355486 -121.927360 52 59ft 0kts
12-Jan-18 13:02 37.355486 -121.927360 52 59ft 0kts
12-Jan-18 13:03 37.355486 -121.927360 52 59ft 0kts
12-Jan-18 13:04 37.355486 -121.927360 52 59ft 0kts
12-Jan-18 13:05 37.355486 -121.927360 52 59ft 0kts
12-Jan-18 13:06 37.355640 -121.927060 66 59ft 9kts
12-Jan-18 13:07 37.354734 -121.923644 48 60ft 7kts
12-Jan-18 13:08 37.352560 -121.920766 139 62ft 13kts
12-Jan-18 13:09 37.352097 -121.919819 69 63ft 0kts
12-Jan-18 13:10 37.352642 -121.919146 13 63ft 17kts
12-Jan-18 13:11 37.375222 -121.943383 318 1071ft 164kts
12-Jan-18 13:12 37.411797 -121.946460 74 3071ft 180kts
12-Jan-18 13:13 37.379108 -121.890919 135 5105ft 229kts
12-Jan-18 13:14 37.332133 -121.834513 135 9484ft 244kts
12-Jan-18 13:15 37.269939 -121.830604 242 12625ft 297kts
12-Jan-18 13:16 37.303210 -121.904510 334 17026ft 297kts
12-Jan-18 13:17 37.386778 -121.942252 352 19333ft 367kts
12-Jan-18 13:18 37.489612 -121.953770 353 22701ft 385kts
12-Jan-18 13:19 37.598287 -121.963348 359 25467ft 406kts
12-Jan-18 13:20 37.708449 -121.918624 17 27853ft 429kts
12-Jan-18 13:21 37.810003 -121.838789 42 29928ft 452kts
12-Jan-18 13:22 37.900365 -121.726511 41 31745ft 466kts
12-Jan-18 13:23 37.983676 -121.623796 41 33356ft 473kts
12-Jan-18 13:24 38.066584 -121.521464 41 35313ft 469kts
12-Jan-18 13:25 38.159239 -121.406777 41 37289ft 467kts
12-Jan-18 13:26 38.251227 -121.292499 42 39046ft 467kts
12-Jan-18 13:27 38.343632 -121.177256 41 40712ft 467kts
12-Jan-18 13:28 38.435637 -121.062035 40 41364ft 465kts
12-Jan-18 13:29 38.527089 -120.947112 39 41347ft 460kts
12-Jan-18 13:30 38.617917 -120.832637 40 41359ft 460kts
12-Jan-18 13:31 38.708705 -120.717724 40 41367ft 462kts
12-Jan-18 13:32 38.800524 -120.601047 40 41366ft 467kts
12-Jan-18 13:33 38.892382 -120.483853 39 41367ft 466kts
12-Jan-18 13:34 38.983669 -120.366855 38 41403ft 465kts
12-Jan-18 13:35 39.074969 -120.249522 38 41404ft 465kts
12-Jan-18 13:36 39.165956 -120.132164 38 41413ft 465kts
12-Jan-18 13:37 39.256752 -120.014543 38 41417ft 465kts
12-Jan-18 13:38 39.347640 -119.896336 38 41421ft 465kts
12-Jan-18 13:39 39.438606 -119.777562 38 41424ft 465kts
12-Jan-18 13:40 39.530926 -119.662649 27 41422ft 454kts
12-Jan-18 13:41 39.641479 -119.590278 18 41427ft 446kts
12-Jan-18 13:42 39.753136 -119.522101 18 41429ft 445kts
12-Jan-18 13:43 39.865140 -119.453921 18 41436ft 445kts
12-Jan-18 13:44 39.976929 -119.385713 18 41437ft 445kts
12-Jan-18 13:45 40.088333 -119.317518 18 41427ft 446kts
12-Jan-18 13:46 40.200116 -119.248841 18 41430ft 446kts
12-Jan-18 13:47 40.312132 -119.179767 18 41430ft 446kts
12-Jan-18 13:48 40.423737 -119.110695 18 41429ft 446kts
12-Jan-18 13:49 40.535569 -119.041226 18 41429ft 446kts
12-Jan-18 13:50 40.646816 -118.971844 18 41428ft 442kts
12-Jan-18 13:51 40.757186 -118.902769 18 41427ft 439kts
12-Jan-18 13:52 40.866564 -118.834068 18 41427ft 435kts
12-Jan-18 13:53 40.974937 -118.765756 17 41424ft 432kts
12-Jan-18 13:54 41.082600 -118.697643 18 41416ft 429kts
12-Jan-18 13:55 41.188408 -118.630458 18 41428ft 427kts
12-Jan-18 13:56 41.295600 -118.562147 18 41427ft 428kts
12-Jan-18 13:57 41.402206 -118.493959 18 41426ft 428kts
12-Jan-18 13:58 41.508640 -118.425624 18 41425ft 428kts
12-Jan-18 13:59 41.586721 -118.375339 18 41424ft 428kts
12-Jan-18 14:00 41.715638 -118.292009 18 41403ft 429kts
12-Jan-18 14:01 41.822322 -118.222776 18 41395ft 428kts
12-Jan-18 14:02 41.928285 -118.153734 18 40888ft 424kts
12-Jan-18 14:03 42.032121 -118.085792 18 39230ft 408kts
12-Jan-18 14:04 42.131568 -118.020548 18 37202ft 395kts
12-Jan-18 14:05 42.228937 -117.956474 18 34697ft 394kts
12-Jan-18 14:06 42.327889 -117.891184 18 30691ft 408kts
12-Jan-18 14:07 42.428730 -117.822901 27 27166ft 401kts
12-Jan-18 14:08 42.504199 -117.711106 42 24861ft 401kts
12-Jan-18 14:09 42.574496 -117.596900 44 22528ft 389kts
12-Jan-18 14:10 42.641207 -117.486434 44 21256ft 367kts
12-Jan-18 14:11 42.704820 -117.380476 45 19124ft 358kts
12-Jan-18 14:12 42.766616 -117.277073 46 16955ft 348kts
12-Jan-18 14:13 42.825535 -117.177415 47 15257ft 319kts
12-Jan-18 14:14 42.879681 -117.085384 48 13988ft 310kts
12-Jan-18 14:15 42.933948 -116.992848 48 13988ft 315kts
12-Jan-18 14:16 42.988779 -116.899037 48 13991ft 318kts
12-Jan-18 14:17 43.034074 -116.821288 48 13991ft 318kts
12-Jan-18 14:18 43.098324 -116.712384 47 13992ft 318kts
12-Jan-18 14:19 43.151947 -116.621469 48 12108ft 307kts
12-Jan-18 14:20 43.195820 -116.548671 46 10140ft 292kts
12-Jan-18 14:21 43.246178 -116.469179 46 9129ft 265kts
12-Jan-18 14:22 43.292841 -116.395426 46 8094ft 246kts
12-Jan-18 14:23 43.335503 -116.327849 47 7060ft 232kts
12-Jan-18 14:24 43.373842 -116.258414 54 6049ft 228kts
12-Jan-18 14:25 43.411792 -116.190914 25 5997ft 212kts
12-Jan-18 14:26 43.455344 -116.160887 23 5912ft 160kts
12-Jan-18 14:27 43.491917 -116.143247 13 5036ft 127kts
12-Jan-18 14:28 43.525171 -116.137741 340 4107ft 118kts
12-Jan-18 14:29 43.547136 -116.170284 296 3630ft 125kts
12-Jan-18 14:30 43.561920 -116.212253 296 2860ft 100kts
12-Jan-18 14:31 43.566445 -116.223633 4 2848ft 0kts

Navigation Log

Ident Type
Flight plan parsing failed, navigation log unavailable